Georgetown, Massachusetts
Current Conditions -  °F | °C
As of 9:54 PM on Friday 28 Nov 2014 (Local Time) from KLWM Reporting Station
Clear Clear  
Wind Chill: 22°   Ceiling: Unl
Heat Index: 22°   Visibility: 10mi
Dew Point: 15°   Wind: 0mph
Humidity: 75%   Direction: NA
Pressure: 30.2"   Gusts: NA
Location:  42.73°N, 70.99°W
Report Text: KLWM 290254Z 00000KT 10SM CLR M06/M09 A3020 RMK AO2 SLP228 T10561094 51011
Loading
Personal Weather Stations






























Interactive Weather Map New forecast layout! Learn more

10-Day Weather Forecast

Advertisements
Track Severe Weather on mobile